Time;durP1;ratioP1;P1;durP2;ratioP2;P2;SDS_P1;SDS_P2;PMS_P1;PMS_P2;Temp;Humidity;BMP_temperature;BMP_pressure;BME280_temperature;BME280_humidity;BME280_pressure;Samples;Min_cycle;Max_cycle;Signal;HPM_P1;HPM_P2
2022/12/12 00:01:46;;;;;;;7.50;4.50;;;;;;;18.58;35.41;100952.88;5022933;28;20142;-65
2022/12/12 00:04:12;;;;;;;8.68;5.18;;;;;;;18.58;35.41;100952.88;5022854;28;20037;-65
2022/12/12 00:06:37;;;;;;;8.13;4.75;;;;;;;18.55;35.31;100955.78;5022920;28;20029;-66
2022/12/12 00:09:03;;;;;;;8.15;4.80;;;;;;;18.53;35.08;100961.16;5022771;28;20041;-66
2022/12/12 00:11:29;;;;;;;7.55;4.93;;;;;;;18.52;35.09;100956.88;5022753;28;20155;-65
2022/12/12 00:13:55;;;;;;;8.65;5.00;;;;;;;18.47;34.92;100951.97;5022714;28;20045;-65
2022/12/12 00:16:21;;;;;;;8.90;5.00;;;;;;;18.46;35.16;100954.72;5022294;28;20021;-68
2022/12/12 00:18:46;;;;;;;7.57;5.10;;;;;;;18.44;34.89;100952.22;5022289;28;20034;-66
2022/12/12 00:21:19;;;;;;;6.88;4.70;;;;;;;18.44;34.89;100960.13;5022448;28;20040;-67
2022/12/12 00:23:45;;;;;;;8.13;4.88;;;;;;;18.41;35.19;100951.63;5022232;28;20029;-67
2022/12/12 00:26:18;;;;;;;7.72;4.53;;;;;;;18.41;34.84;100956.91;5021867;28;20025;-66
2022/12/12 00:28:44;;;;;;;7.70;4.90;;;;;;;18.40;35.01;100950.78;5021970;28;20037;-67
2022/12/12 00:31:09;;;;;;;7.20;4.50;;;;;;;18.38;34.82;100960.63;5022156;28;20052;-65
2022/12/12 00:33:35;;;;;;;6.90;4.40;;;;;;;18.36;34.92;100959.91;5022256;28;20332;-67
2022/12/12 00:36:00;;;;;;;7.47;4.90;;;;;;;18.29;34.92;100948.16;5021997;28;20057;-68
2022/12/12 00:38:25;;;;;;;8.55;4.65;;;;;;;18.34;34.62;100956.56;5022030;28;20426;-67
2022/12/12 00:40:56;;;;;;;7.43;5.13;;;;;;;18.33;34.74;100951.41;5021763;28;20467;-68
2022/12/12 00:43:22;;;;;;;7.78;5.25;;;;;;;18.34;34.58;100961.84;5021876;28;20025;-66
2022/12/12 00:45:47;;;;;;;9.00;5.43;;;;;;;18.34;34.62;100963.63;5020650;28;20048;-67
2022/12/12 00:48:12;;;;;;;7.43;5.03;;;;;;;18.30;34.84;100963.03;5021422;28;20033;-66
2022/12/12 00:50:38;;;;;;;7.72;4.95;;;;;;;18.30;34.68;100966.50;5021127;28;20084;-67
2022/12/12 00:53:03;;;;;;;7.32;4.93;;;;;;;18.30;34.72;100969.16;5022394;28;20044;-67
2022/12/12 00:55:28;;;;;;;10.15;4.85;;;;;;;18.25;34.88;100957.31;5022024;28;20026;-68
2022/12/12 00:57:54;;;;;;;7.82;5.07;;;;;;;18.28;34.31;100973.72;5035797;28;20064;-67
2022/12/12 01:00:20;;;;;;;7.28;4.65;;;;;;;18.24;34.71;100956.44;5021637;28;20041;-67
2022/12/12 01:02:45;;;;;;;8.77;5.20;;;;;;;18.25;34.72;100975.78;5021712;28;20087;-65
2022/12/12 01:05:12;;;;;;;8.40;5.13;;;;;;;18.22;34.49;100970.75;5022168;28;20084;-65
2022/12/12 01:07:37;;;;;;;9.10;5.15;;;;;;;18.22;34.51;100970.75;5021395;28;20035;-66
2022/12/12 01:10:03;;;;;;;8.43;5.30;;;;;;;18.21;34.61;100969.03;5021846;28;20425;-67
2022/12/12 01:12:28;;;;;;;7.13;4.63;;;;;;;18.20;34.62;100976.13;5021134;28;20371;-66
2022/12/12 01:14:54;;;;;;;7.88;4.95;;;;;;;18.18;34.68;100985.13;5021645;28;20493;-68
2022/12/12 01:17:19;;;;;;;9.82;5.47;;;;;;;18.16;34.50;100985.25;5021009;28;20029;-66
2022/12/12 01:19:44;;;;;;;9.48;5.03;;;;;;;18.15;34.78;100983.59;5021488;28;20049;-68
2022/12/12 01:22:10;;;;;;;8.20;5.05;;;;;;;18.15;34.58;100988.00;5019175;28;20049;-68
2022/12/12 01:24:35;;;;;;;7.47;4.78;;;;;;;18.15;34.89;100990.63;5021840;28;20033;-66
2022/12/12 01:27:01;;;;;;;8.20;5.25;;;;;;;18.12;34.50;100992.56;5020588;28;20176;-67
2022/12/12 01:29:27;;;;;;;9.25;5.22;;;;;;;18.11;34.85;100993.50;5021417;28;20061;-67
2022/12/12 01:31:52;;;;;;;8.52;5.28;;;;;;;18.08;34.79;100996.38;5020977;28;20381;-68
2022/12/12 01:34:17;;;;;;;9.50;5.78;;;;;;;18.11;34.68;101000.59;5021187;28;20041;-68
2022/12/12 01:36:43;;;;;;;8.57;5.30;;;;;;;18.08;34.62;101000.84;5020797;28;20045;-68
2022/12/12 01:39:08;;;;;;;9.43;5.63;;;;;;;18.06;34.53;100997.50;5020673;28;20029;-67
2022/12/12 01:41:33;;;;;;;9.57;5.20;;;;;;;18.05;34.52;101001.91;5021090;28;20037;-66
2022/12/12 01:44:01;;;;;;;7.97;5.07;;;;;;;18.07;34.94;101001.78;5020821;28;20033;-67
2022/12/12 01:46:39;;;;;;;9.70;5.55;;;;;;;18.04;34.69;101008.16;5020681;28;20040;-66
2022/12/12 01:49:14;;;;;;;8.55;5.63;;;;;;;18.05;34.69;101009.81;5020950;28;20136;-65
2022/12/12 01:51:40;;;;;;;9.02;5.88;;;;;;;18.02;34.28;101004.78;5020648;28;20072;-67
2022/12/12 01:54:09;;;;;;;9.57;5.38;;;;;;;18.02;34.49;101011.84;5020758;28;20049;-66
2022/12/12 01:56:36;;;;;;;10.15;5.60;;;;;;;17.99;34.43;101014.72;5020968;28;20037;-65
2022/12/12 01:59:05;;;;;;;9.35;5.65;;;;;;;17.96;34.42;101005.28;5020431;28;20033;-66
2022/12/12 02:01:31;;;;;;;10.40;5.50;;;;;;;17.95;34.63;101008.88;5020849;28;20044;-66
2022/12/12 02:03:59;;;;;;;10.32;5.60;;;;;;;17.95;34.52;101007.06;5020583;28;20034;-66
2022/12/12 02:06:28;;;;;;;8.13;5.40;;;;;;;17.95;34.65;101008.88;5020913;28;20072;-66
2022/12/12 02:08:57;;;;;;;8.82;5.03;;;;;;;17.94;34.84;101020.34;5020608;28;20032;-65
2022/12/12 02:11:22;;;;;;;9.18;5.13;;;;;;;17.94;34.64;101015.94;5019948;28;20045;-67
2022/12/12 02:13:48;;;;;;;9.60;5.65;;;;;;;17.92;34.38;101009.94;5020708;28;20033;-68
2022/12/12 02:16:25;;;;;;;11.32;5.90;;;;;;;17.90;34.86;101014.50;5020654;28;20529;-68
2022/12/12 02:19:15;;;;;;;9.57;6.03;;;;;;;17.91;34.50;101010.91;5020450;28;20041;-68
2022/12/12 02:21:51;;;;;;;9.82;5.75;;;;;;;17.91;34.40;101018.81;5020338;28;20041;-66
2022/12/12 02:24:32;;;;;;;8.93;5.40;;;;;;;17.87;34.41;101013.88;5020888;28;20136;-67
2022/12/12 02:27:03;;;;;;;9.50;6.15;;;;;;;17.88;34.29;101015.56;5020719;28;20873;-65
2022/12/12 02:29:51;;;;;;;9.32;5.43;;;;;;;17.88;34.38;101021.69;5020843;28;20029;-65
2022/12/12 02:32:30;;;;;;;10.10;5.55;;;;;;;17.86;34.48;101025.38;5019992;28;20040;-66
2022/12/12 02:35:17;;;;;;;9.93;5.82;;;;;;;17.85;34.50;101027.16;5020167;28;20045;-67
2022/12/12 02:38:14;;;;;;;12.57;5.95;;;;;;;17.84;34.56;101024.66;5020553;28;20045;-67
2022/12/12 02:40:53;;;;;;;10.20;5.63;;;;;;;17.79;34.68;101017.09;5020663;28;20061;-66
2022/12/12 02:43:29;;;;;;;11.40;6.32;;;;;;;17.80;34.71;101029.34;5020489;28;20448;-66
2022/12/12 02:46:00;;;;;;;7.97;5.57;;;;;;;17.80;34.42;101024.06;5020423;28;20401;-66
2022/12/12 02:48:35;;;;;;;11.20;5.63;;;;;;;17.78;34.48;101028.59;5020368;28;20034;-65
2022/12/12 02:51:05;;;;;;;9.15;6.00;;;;;;;17.77;34.65;101025.13;5020006;28;20041;-66
2022/12/12 02:53:30;;;;;;;10.15;6.10;;;;;;;17.77;34.71;101025.13;5020338;28;20045;-68
2022/12/12 02:56:01;;;;;;;9.07;5.63;;;;;;;17.76;34.63;101026.06;5020688;28;20029;-68
2022/12/12 02:58:27;;;;;;;9.77;5.90;;;;;;;17.76;34.20;101025.22;5021416;28;20405;-66
2022/12/12 03:01:19;;;;;;;8.13;5.45;;;;;;;17.73;34.83;101023.66;5023865;28;20052;-67
2022/12/12 03:10:18;;;;;;;9.45;5.78;;;;;;;17.71;34.23;101019.50;5023195;28;20117;-67
2022/12/12 03:13:14;;;;;;;10.90;6.20;;;;;;;17.71;34.71;101011.56;5023600;28;20176;-67
2022/12/12 03:15:57;;;;;;;10.88;5.88;;;;;;;17.68;34.31;101017.91;5022694;28;20069;-67
2022/12/12 03:18:30;;;;;;;9.90;5.78;;;;;;;17.68;34.72;101017.91;5023119;28;20038;-66
2022/12/12 03:21:20;;;;;;;9.77;5.72;;;;;;;17.66;34.52;101011.94;5036943;28;20495;-67
2022/12/12 03:23:55;;;;;;;9.25;5.53;;;;;;;17.66;34.50;101014.56;5022151;28;20437;-66
2022/12/12 03:26:38;;;;;;;9.20;6.03;;;;;;;17.62;34.18;101012.28;5023355;28;20033;-68
2022/12/12 03:29:09;;;;;;;12.10;6.25;;;;;;;17.62;34.30;101010.47;5023015;28;20040;-68
2022/12/12 03:31:41;;;;;;;13.07;6.07;;;;;;;17.62;34.53;101007.00;5023488;28;20477;-68
2022/12/12 03:34:14;;;;;;;10.93;5.43;;;;;;;17.63;34.62;101013.97;5022828;28;20587;-67
2022/12/12 03:36:46;;;;;;;10.50;6.00;;;;;;;17.61;34.53;101008.81;5021548;28;20049;-66
2022/12/12 03:39:36;;;;;;;9.73;5.75;;;;;;;17.61;34.27;101010.59;5023466;28;20037;-66
2022/12/12 03:42:18;;;;;;;9.70;5.38;;;;;;;17.58;34.25;101006.41;4962919;28;20049;-67
2022/12/12 03:45:00;;;;;;;10.90;5.65;;;;;;;17.58;34.32;101015.16;5022955;28;20034;-66
2022/12/12 03:47:37;;;;;;;11.52;6.35;;;;;;;17.58;34.20;101019.59;5020991;28;20113;-66
2022/12/12 03:50:08;;;;;;;12.07;6.18;;;;;;;17.58;34.47;101019.59;5022951;28;20044;-66
2022/12/12 03:52:39;;;;;;;7.85;5.47;;;;;;;17.57;34.25;101024.00;5022897;28;20037;-66
2022/12/12 03:55:55;;;;;;;8.68;5.55;;;;;;;17.57;34.23;101018.72;5022953;28;20041;-67
2022/12/12 03:58:32;;;;;;;10.52;5.78;;;;;;;17.54;34.27;101021.59;4987609;28;20606;-67
2022/12/12 04:01:03;;;;;;;10.63;6.00;;;;;;;17.53;34.14;101021.72;5023062;28;20025;-67
2022/12/12 04:03:48;;;;;;;9.52;5.70;;;;;;;17.51;34.17;101019.19;5022704;28;20067;-67
2022/12/12 04:06:26;;;;;;;9.23;5.75;;;;;;;17.53;34.30;101014.66;5023309;28;20069;-66
2022/12/12 04:14:49;;;;;;;9.02;5.85;;;;;;;17.51;34.28;101021.81;5022237;28;20035;-67
2022/12/12 04:17:21;;;;;;;10.52;5.60;;;;;;;17.51;34.29;101024.47;5022095;28;20033;-66
2022/12/12 04:28:54;;;;;;;9.48;6.00;;;;;;;17.45;34.45;101024.94;5022743;28;20065;-67
2022/12/12 04:31:25;;;;;;;10.98;6.20;;;;;;;17.48;34.33;101040.53;5021732;28;20038;-66
2022/12/12 04:33:57;;;;;;;10.93;5.80;;;;;;;17.46;34.20;101033.69;5021715;28;20115;-68
2022/12/12 04:36:23;;;;;;;9.45;5.78;;;;;;;17.50;34.03;101045.66;5021302;28;20049;-67
2022/12/12 04:38:50;;;;;;;10.40;5.95;;;;;;;17.49;34.47;101044.81;5022166;28;20033;-66
2022/12/12 04:41:18;;;;;;;12.43;6.63;;;;;;;17.47;34.18;101038.00;5021861;28;20064;-68
2022/12/12 04:43:48;;;;;;;9.75;6.10;;;;;;;17.41;34.41;101037.50;5021179;28;20108;-67
2022/12/12 04:46:17;;;;;;;9.73;6.13;;;;;;;17.47;34.08;101049.38;5021775;28;20370;-66
2022/12/12 04:48:50;;;;;;;11.15;6.50;;;;;;;17.47;34.07;101051.19;5022069;28;20095;-66
2022/12/12 04:51:21;;;;;;;8.57;5.80;;;;;;;17.51;34.33;101053.44;5021657;28;20056;-66
2022/12/12 04:53:53;;;;;;;9.25;5.60;;;;;;;17.49;33.96;101046.63;5021914;28;20033;-66
2022/12/12 04:56:25;;;;;;;9.65;5.28;;;;;;;17.50;33.93;101048.28;5021744;28;20072;-64
2022/12/12 04:58:50;;;;;;;10.20;6.07;;;;;;;17.48;34.23;101044.94;5021688;28;20069;-65
2022/12/12 05:01:26;;;;;;;8.75;5.45;;;;;;;17.49;34.19;101051.91;5021322;28;20076;-65
2022/12/12 05:03:58;;;;;;;11.98;5.80;;;;;;;17.50;34.04;101051.78;5022046;28;20569;-65
2022/12/12 05:06:32;;;;;;;11.70;5.53;;;;;;;17.54;34.07;101057.66;5021431;28;20532;-68
2022/12/12 05:08:58;;;;;;;;;;;;;;;17.58;34.00;101054.66;5019984;28;20112;-66
2022/12/12 05:11:24;;;;;;;8.88;5.40;;;;;;;17.57;33.87;101054.78;5021213;28;19959;-67
2022/12/12 05:13:49;;;;;;;8.52;5.60;;;;;;;17.52;34.24;101047.22;5021321;28;20188;-66
2022/12/12 05:16:20;;;;;;;11.50;5.53;;;;;;;17.55;34.06;101047.00;5021758;28;20820;-66
2022/12/12 05:18:46;;;;;;;8.55;5.88;;;;;;;17.55;34.01;101046.16;5020720;28;20033;-65
2022/12/12 05:21:12;;;;;;;8.38;5.55;;;;;;;17.52;34.39;101051.66;5021403;28;20044;-67
2022/12/12 05:23:37;;;;;;;10.88;5.97;;;;;;;17.52;33.67;101047.22;5021345;28;20041;-66
2022/12/12 05:26:30;;;;;;;9.70;5.63;;;;;;;17.52;33.97;101055.13;5020803;28;20112;-67
2022/12/12 05:28:56;;;;;;;10.55;5.90;;;;;;;17.54;34.10;101055.84;5021166;28;20025;-67
2022/12/12 05:31:22;;;;;;;9.55;5.95;;;;;;;17.52;34.23;101059.56;5020482;28;20044;-67
2022/12/12 05:33:47;;;;;;;9.60;5.40;;;;;;;17.51;33.90;101050.81;5021140;28;20037;-67
2022/12/12 05:36:14;;;;;;;8.38;5.50;;;;;;;17.55;34.28;101057.53;5021246;28;20049;-67
2022/12/12 05:38:40;;;;;;;8.77;5.15;;;;;;;17.53;34.27;101053.31;5019617;28;20069;-67
2022/12/12 05:41:06;;;;;;;8.93;5.10;;;;;;;17.57;34.47;101062.69;5017769;28;20973;-67
2022/12/12 05:43:31;;;;;;;7.45;5.03;;;;;;;17.60;34.90;101059.81;5021118;28;20079;-66
2022/12/12 05:45:56;;;;;;;7.75;4.70;;;;;;;17.65;35.27;101062.94;5020801;28;20465;-66
2022/12/12 05:48:22;;;;;;;8.90;4.40;;;;;;;17.71;35.86;101064.28;5020918;28;20030;-67
2022/12/12 05:50:48;;;;;;;8.13;4.53;;;;;;;17.76;35.76;101062.16;5021146;28;20034;-67
2022/12/12 05:53:13;;;;;;;7.82;4.13;;;;;;;17.80;35.87;101068.88;5020048;28;20083;-66
2022/12/12 05:55:38;;;;;;;7.82;4.13;;;;;;;17.84;35.72;101066.84;5020389;28;20036;-66
2022/12/12 05:58:04;;;;;;;9.18;4.20;;;;;;;17.89;35.83;101064.72;5020747;28;20061;-66
2022/12/12 06:00:29;;;;;;;6.85;3.80;;;;;;;17.93;35.75;101066.16;5020739;28;20486;-67
2022/12/12 06:02:54;;;;;;;7.20;4.03;;;;;;;17.99;35.80;101067.47;5021130;28;20037;-66
2022/12/12 06:05:20;;;;;;;7.90;3.88;;;;;;;17.98;35.60;101061.38;5020344;28;20044;-67
2022/12/12 06:07:45;;;;;;;7.68;3.83;;;;;;;18.05;35.79;101072.28;5019904;28;20037;-65
2022/12/12 06:10:11;;;;;;;7.68;4.13;;;;;;;18.07;35.96;101079.13;5020673;28;20053;-66
2022/12/12 06:12:37;;;;;;;7.97;3.83;;;;;;;18.09;35.69;101077.19;5020436;28;20073;-67
2022/12/12 06:15:02;;;;;;;7.50;4.10;;;;;;;18.10;35.80;101083.31;5020735;28;20420;-65
2022/12/12 06:17:28;;;;;;;6.57;3.90;;;;;;;18.11;35.63;101072.63;5018486;28;20042;-67
2022/12/12 06:19:53;;;;;;;7.30;4.05;;;;;;;18.13;35.69;101086.56;5020981;28;20120;-67
2022/12/12 06:22:18;;;;;;;9.68;4.07;;;;;;;18.16;35.49;101079.38;5020647;28;20033;-66
2022/12/12 06:24:44;;;;;;;7.50;4.18;;;;;;;18.18;35.70;101085.34;5020562;28;20033;-66
2022/12/12 06:27:09;;;;;;;7.38;3.75;;;;;;;18.15;35.33;101080.31;5020571;28;20092;-68
2022/12/12 06:29:34;;;;;;;8.27;4.13;;;;;;;18.20;35.55;101088.69;5020557;28;20096;-65
2022/12/12 06:31:59;;;;;;;7.72;4.07;;;;;;;18.20;35.68;101086.06;5020019;28;20474;-66
2022/12/12 06:34:25;;;;;;;6.60;3.95;;;;;;;18.21;35.81;101087.75;5022079;28;20561;-66
2022/12/12 06:36:50;;;;;;;7.72;4.00;;;;;;;18.19;35.54;101082.59;5023846;28;20056;-66
2022/12/12 06:39:16;;;;;;;7.32;4.28;;;;;;;18.19;35.36;101081.78;5024259;28;20029;-66
2022/12/12 06:41:42;;;;;;;7.85;3.80;;;;;;;18.22;35.40;101081.53;5023572;28;20041;-67
2022/12/12 06:44:07;;;;;;;6.82;3.95;;;;;;;18.19;35.42;101077.31;5023742;28;20048;-67
2022/12/12 06:46:33;;;;;;;7.45;3.63;;;;;;;18.18;35.38;101088.81;5024142;28;20488;-68
2022/12/12 06:48:59;;;;;;;8.10;3.85;;;;;;;18.16;35.42;101089.91;5022578;28;20035;-66
2022/12/12 06:51:28;;;;;;;7.28;3.67;;;;;;;18.21;35.46;101093.84;5024075;28;20092;-66
2022/12/12 06:53:55;;;;;;;6.53;3.45;;;;;;;18.24;35.46;101098.06;5024110;28;20059;-67
2022/12/12 06:56:25;;;;;;;8.75;3.70;;;;;;;18.25;35.62;101102.41;5022937;28;20037;-67
2022/12/12 06:58:51;;;;;;;7.40;3.97;;;;;;;18.26;35.43;101096.16;5023600;28;20039;-67
2022/12/12 07:01:19;;;;;;;6.43;3.67;;;;;;;18.27;35.40;101095.19;5020716;28;21339;-67
2022/12/12 07:03:45;;;;;;;7.63;4.22;;;;;;;18.28;35.44;101094.25;5022634;28;20037;-67
2022/12/12 07:06:11;;;;;;;7.80;3.95;;;;;;;18.28;35.53;101094.25;5023282;28;20025;-68
2022/12/12 07:08:36;;;;;;;8.20;4.03;;;;;;;18.27;35.23;101098.66;5022646;28;20040;-67
2022/12/12 07:11:09;;;;;;;7.78;4.10;;;;;;;18.27;35.51;101100.47;5023782;28;20111;-67
2022/12/12 07:13:34;;;;;;;8.10;3.83;;;;;;;18.27;35.42;101103.94;5023812;28;20037;-69
2022/12/12 07:16:00;;;;;;;7.93;3.85;;;;;;;18.26;35.52;101104.91;5023079;28;20064;-68
2022/12/12 07:18:25;;;;;;;8.82;3.78;;;;;;;18.27;35.41;101111.84;5023222;28;20030;-65
2022/12/12 07:20:51;;;;;;;9.57;4.50;;;;;;;18.27;35.58;101108.38;5023854;28;20068;-65
2022/12/12 07:23:16;;;;;;;8.38;4.30;;;;;;;18.28;35.51;101118.81;5022885;28;20489;-67
2022/12/12 07:25:43;;;;;;;7.45;4.03;;;;;;;18.26;35.62;101117.25;5022854;28;20068;-67
2022/12/12 07:28:10;;;;;;;8.23;3.80;;;;;;;18.21;35.10;101114.97;5022480;28;20494;-67
2022/12/12 07:30:44;;;;;;;7.43;3.72;;;;;;;18.29;35.59;101122.28;5023408;28;20040;-68
2022/12/12 07:33:11;;;;;;;7.10;4.28;;;;;;;18.31;35.15;101128.31;5023462;28;20777;-65
2022/12/12 07:35:36;;;;;;;7.05;4.30;;;;;;;18.29;35.07;101125.78;5022872;28;20497;-68
2022/12/12 07:38:03;;;;;;;8.30;4.60;;;;;;;18.27;35.03;101121.59;5022890;28;20033;-68
2022/12/12 07:40:28;;;;;;;8.32;4.40;;;;;;;18.28;35.41;101123.28;5023397;28;20464;-68
2022/12/12 07:42:53;;;;;;;7.53;4.05;;;;;;;18.30;35.23;101124.81;5023188;28;20120;-67
2022/12/12 07:45:19;;;;;;;6.85;4.00;;;;;;;18.30;35.27;101130.09;5021987;28;20033;-67
2022/12/12 07:47:44;;;;;;;8.43;4.45;;;;;;;18.30;35.52;101129.25;5022977;28;20112;-67
2022/12/12 07:50:10;;;;;;;7.13;4.00;;;;;;;18.33;35.65;101139.56;5019623;28;20037;-67
2022/12/12 07:52:36;;;;;;;9.23;4.60;;;;;;;18.32;35.52;101143.16;5020740;28;20039;-67
2022/12/12 07:55:01;;;;;;;8.70;4.20;;;;;;;18.31;35.45;101141.50;5022880;28;20042;-68
2022/12/12 07:57:27;;;;;;;7.00;4.13;;;;;;;18.32;35.62;101140.53;5022378;28;20036;-66
2022/12/12 07:59:53;;;;;;;7.07;4.35;;;;;;;18.31;35.90;101152.06;5022835;28;20034;-69
2022/12/12 08:02:18;;;;;;;8.30;4.47;;;;;;;18.32;36.03;101151.06;5022839;28;20029;-67
2022/12/12 08:04:43;;;;;;;6.55;3.97;;;;;;;18.30;36.30;101158.28;5023135;28;20087;-69
2022/12/12 08:07:08;;;;;;;8.50;4.00;;;;;;;18.30;36.49;101153.84;5022719;28;20040;-67
2022/12/12 08:09:35;;;;;;;6.97;3.90;;;;;;;18.35;36.23;101166.66;5023043;28;20083;-68
2022/12/12 08:12:01;;;;;;;7.00;3.72;;;;;;;18.34;36.55;101165.00;5022388;28;20212;-67
2022/12/12 08:14:26;;;;;;;8.00;3.90;;;;;;;18.37;36.62;101164.75;5022843;28;20135;-69
2022/12/12 08:16:52;;;;;;;8.27;3.88;;;;;;;18.39;36.58;101160.22;5022245;28;20041;-65
2022/12/12 08:19:18;;;;;;;10.07;4.25;;;;;;;18.43;36.93;101164.28;5022467;28;20920;-67
2022/12/12 08:21:43;;;;;;;7.55;3.90;;;;;;;18.44;36.86;101162.50;5020126;28;20547;-67
2022/12/12 08:24:13;;;;;;;9.32;3.85;;;;;;;18.44;36.82;101173.88;5022440;28;20481;-66
2022/12/12 08:26:39;;;;;;;8.52;4.20;;;;;;;18.46;36.72;101169.31;5022324;28;20041;-66
2022/12/12 08:29:04;;;;;;;9.18;4.10;;;;;;;18.45;37.10;101167.66;5022496;28;20076;-66
2022/12/12 08:31:30;;;;;;;7.55;4.10;;;;;;;18.47;36.71;101170.19;5022145;28;20048;-66
2022/12/12 08:33:57;;;;;;;7.60;4.30;;;;;;;18.46;36.79;101168.50;5019938;28;20049;-67
2022/12/12 08:36:25;;;;;;;9.38;4.00;;;;;;;18.45;36.93;101170.31;5021841;28;20053;-67
2022/12/12 08:38:51;;;;;;;11.18;4.90;;;;;;;18.46;36.44;101174.59;5018845;28;20132;-69
2022/12/12 08:41:17;;;;;;;7.95;3.88;;;;;;;18.44;36.47;101168.59;5017832;28;20109;-65
2022/12/12 08:43:43;;;;;;;8.10;4.10;;;;;;;18.46;36.29;101173.78;5014909;28;20033;-68
2022/12/12 08:46:10;;;;;;;9.60;4.63;;;;;;;18.45;36.36;101174.72;5019556;28;20060;-64
2022/12/12 08:48:35;;;;;;;7.30;3.60;;;;;;;18.42;36.32;101162.63;5018638;28;20033;-64
2022/12/12 08:51:01;;;;;;;9.05;4.20;;;;;;;18.46;36.72;101176.41;5019095;28;20040;-67
2022/12/12 08:53:27;;;;;;;8.15;4.10;;;;;;;18.49;36.79;101181.44;5019496;28;20064;-68
2022/12/12 08:55:52;;;;;;;8.63;4.00;;;;;;;18.47;36.72;101171.00;5018521;28;20037;-68
2022/12/12 08:58:18;;;;;;;7.68;3.75;;;;;;;18.51;36.94;101176.06;5021992;28;20072;-66
2022/12/12 09:00:43;;;;;;;8.27;4.40;;;;;;;18.57;36.89;101173.78;5017412;28;20088;-69
2022/12/12 09:03:08;;;;;;;8.30;4.55;;;;;;;18.58;36.68;101179.88;5020385;28;20036;-69
2022/12/12 09:05:34;;;;;;;9.80;4.47;;;;;;;18.58;36.56;101178.09;5019725;28;20036;-69
2022/12/12 09:07:59;;;;;;;7.35;3.75;;;;;;;18.58;36.38;101182.53;5021095;28;20095;-69
2022/12/12 09:10:26;;;;;;;9.73;4.50;;;;;;;18.60;35.93;101185.91;5018759;28;20333;-68
2022/12/12 09:12:52;;;;;;;9.35;5.43;;;;;;;18.59;35.23;101185.03;5020852;28;20033;-67
2022/12/12 09:15:17;;;;;;;8.63;4.35;;;;;;;18.60;35.53;101188.53;5020802;28;20485;-68
2022/12/12 09:17:43;;;;;;;8.85;4.30;;;;;;;18.56;36.12;101190.56;5020338;28;20036;-67
2022/12/12 09:20:09;;;;;;;6.93;4.65;;;;;;;18.59;36.04;101200.06;5020288;28;20033;-66
2022/12/12 09:22:34;;;;;;;8.20;4.05;;;;;;;18.56;35.60;101190.56;5020672;28;20049;-64
2022/12/12 09:25:00;;;;;;;8.75;4.47;;;;;;;18.57;35.44;101192.25;5020529;28;20041;-64
2022/12/12 09:27:25;;;;;;;11.73;4.32;;;;;;;18.57;35.83;101191.41;5020547;28;20036;-66
2022/12/12 09:29:50;;;;;;;10.48;4.72;;;;;;;18.60;35.88;101191.19;5020771;28;20702;-68
2022/12/12 09:32:17;;;;;;;9.00;4.40;;;;;;;18.62;36.07;101190.09;5019273;28;20044;-69
2022/12/12 09:34:42;;;;;;;9.63;4.40;;;;;;;18.64;35.93;101187.31;5020070;28;20123;-65
2022/12/12 09:37:08;;;;;;;9.13;4.35;;;;;;;18.66;36.02;101188.06;5019789;28;20085;-66
2022/12/12 09:39:33;;;;;;;8.18;4.30;;;;;;;18.67;36.05;101190.59;5020522;28;20094;-67
2022/12/12 09:42:09;;;;;;;8.02;4.18;;;;;;;18.64;35.92;101185.53;5020108;28;20608;-69
2022/12/12 09:44:35;;;;;;;8.02;4.30;;;;;;;18.70;35.82;101186.03;5020305;28;20036;-67
2022/12/12 09:47:10;;;;;;;9.27;3.95;;;;;;;18.66;36.08;101182.78;5020652;28;20029;-68
2022/12/12 09:49:46;;;;;;;8.77;4.25;;;;;;;18.70;36.20;101193.94;5019231;28;20390;-70
2022/12/12 09:52:27;;;;;;;9.52;4.22;;;;;;;18.64;35.67;101180.25;5020057;28;20040;-70
2022/12/12 09:54:53;;;;;;;8.43;4.40;;;;;;;18.69;35.97;101185.16;5019645;28;20688;-68
2022/12/12 09:57:24;;;;;;;9.02;4.28;;;;;;;18.69;36.07;101179.88;5019934;28;20835;-68
2022/12/12 10:00:06;;;;;;;9.25;3.40;;;;;;;18.70;36.21;101178.94;5019922;28;20029;-69
2022/12/12 10:02:44;;;;;;;7.75;4.13;;;;;;;18.68;36.36;101183.50;5020215;28;20331;-67
2022/12/12 10:05:25;;;;;;;10.57;4.10;;;;;;;18.69;36.48;101185.16;5019233;28;20108;-68
2022/12/12 10:08:15;;;;;;;7.47;4.22;;;;;;;18.73;36.35;101189.25;5018640;28;20037;-67
2022/12/12 10:10:45;;;;;;;9.00;3.70;;;;;;;18.72;36.20;101182.28;5020274;28;20041;-67
2022/12/12 10:13:15;;;;;;;9.90;4.85;;;;;;;18.73;35.82;101183.97;5019174;28;20029;-68
2022/12/12 10:15:46;;;;;;;7.85;4.30;;;;;;;18.73;36.02;101178.69;5020764;28;20034;-69
2022/12/12 10:18:27;;;;;;;11.68;4.50;;;;;;;18.70;35.48;101176.28;5020688;28;20057;-66
2022/12/12 10:20:57;;;;;;;7.68;3.60;;;;;;;18.72;36.04;101181.44;5020094;28;20029;-71
2022/12/12 10:23:35;;;;;;;9.93;4.13;;;;;;;18.74;35.97;101185.66;5020577;28;20544;-65
2022/12/12 10:26:14;;;;;;;8.93;3.92;;;;;;;18.73;35.75;101168.13;5020361;28;20029;-67
2022/12/12 10:28:40;;;;;;;9.48;4.25;;;;;;;18.72;35.64;101174.34;5020547;28;20033;-66
2022/12/12 10:31:15;;;;;;;8.10;4.03;;;;;;;18.73;35.89;101186.63;5020543;28;20659;-65
2022/12/12 10:34:12;;;;;;;8.88;4.18;;;;;;;18.72;35.93;101182.28;5020507;28;20540;-64
2022/12/12 10:36:56;;;;;;;7.65;3.92;;;;;;;18.71;36.07;101167.41;4996937;28;20053;-67
2022/12/12 10:39:52;;;;;;;10.50;4.17;;;;;;;18.69;36.22;101164.03;5019396;28;20429;-66
2022/12/12 10:42:27;;;;;;;8.68;3.88;;;;;;;18.65;36.49;101157.34;5017964;28;20029;-69
2022/12/12 10:45:13;;;;;;;7.45;3.72;;;;;;;18.70;36.44;101170.19;5019292;28;20285;-68
2022/12/12 10:47:38;;;;;;;10.00;3.63;;;;;;;18.71;36.36;101163.91;5013399;28;20030;-69
2022/12/12 10:50:10;;;;;;;10.25;3.70;;;;;;;18.70;36.67;101157.81;5018486;28;20045;-70
2022/12/12 10:52:36;;;;;;;9.05;3.60;;;;;;;18.72;36.45;101165.59;5016683;28;20540;-68
2022/12/12 10:55:07;;;;;;;10.85;3.83;;;;;;;18.68;36.52;101152.66;5019437;28;20033;-69
2022/12/12 10:57:34;;;;;;;8.95;3.47;;;;;;;18.71;36.21;101158.63;5019747;28;20037;-69
2022/12/12 11:00:15;;;;;;;6.82;3.28;;;;;;;18.73;36.63;101172.56;5018817;28;20033;-70
2022/12/12 11:02:43;;;;;;;8.18;3.72;;;;;;;18.74;36.41;101171.59;5018883;28;20944;-68
2022/12/12 11:05:17;;;;;;;10.07;3.33;;;;;;;18.78;36.51;101162.50;5019293;28;20128;-69
2022/12/12 11:07:47;;;;;;;7.57;3.30;;;;;;;18.76;36.52;101159.13;5018649;28;20048;-69
2022/12/12 11:10:21;;;;;;;8.05;3.85;;;;;;;18.76;36.72;101156.50;5017841;28;20430;-69
2022/12/12 11:12:55;;;;;;;8.88;3.42;;;;;;;18.76;36.68;101156.50;5019477;28;20029;-70
2022/12/12 11:15:27;;;;;;;8.00;3.35;;;;;;;18.75;36.81;101154.81;5019095;28;20039;-70
2022/12/12 11:17:55;;;;;;;8.38;3.75;;;;;;;18.77;37.12;101148.47;5018540;28;20121;-70
2022/12/12 11:20:21;;;;;;;8.80;3.75;;;;;;;18.81;37.67;101147.22;5021057;28;20095;-69
2022/12/12 11:22:51;;;;;;;10.82;3.70;;;;;;;18.85;38.03;101148.72;5023224;28;20493;-69
2022/12/12 11:25:28;;;;;;;8.52;3.90;;;;;;;18.89;38.09;101151.13;5023177;28;20121;-69
2022/12/12 11:27:57;;;;;;;8.00;3.20;;;;;;;18.81;38.05;101139.31;5022817;28;20042;-69
2022/12/12 11:30:33;;;;;;;9.95;3.75;;;;;;;18.88;37.96;101149.41;5022579;28;20037;-69
2022/12/12 11:33:01;;;;;;;8.65;3.50;;;;;;;18.92;38.16;101153.50;5023376;28;20037;-69
2022/12/12 11:35:38;;;;;;;8.95;3.72;;;;;;;18.89;37.85;101143.19;5022667;28;20049;-69
2022/12/12 11:38:16;;;;;;;8.30;3.45;;;;;;;18.89;38.16;101144.03;5022861;28;20049;-69
2022/12/12 11:40:43;;;;;;;8.35;3.38;;;;;;;18.90;38.02;101139.56;5023024;28;20114;-69
2022/12/12 11:43:35;;;;;;;8.30;3.90;;;;;;;18.90;38.13;101144.84;5022551;28;20088;-69
2022/12/12 11:46:14;;;;;;;8.02;3.50;;;;;;;18.86;38.18;101144.25;5022510;28;20033;-69
2022/12/12 11:48:47;;;;;;;10.27;3.70;;;;;;;18.89;37.97;101137.91;5022437;28;20037;-71
2022/12/12 11:51:33;;;;;;;7.85;3.20;;;;;;;18.85;38.40;101139.97;5023163;28;20067;-70
2022/12/12 11:54:00;;;;;;;7.07;3.55;;;;;;;18.85;38.19;101137.31;5021676;28;20037;-69
2022/12/12 11:56:58;;;;;;;9.90;3.75;;;;;;;18.83;38.31;101129.50;5036462;28;20041;-71
2022/12/12 11:59:32;;;;;;;9.02;3.42;;;;;;;18.83;38.44;101129.50;5010670;28;20263;-68